Time;durP1;ratioP1;P1;durP2;ratioP2;P2;SDS_P1;SDS_P2;PMS_P1;PMS_P2;Temp;Humidity;BMP_temperature;BMP_pressure;BME280_temperature;BME280_humidity;BME280_pressure;Samples;Min_cycle;Max_cycle;Signal;HPM_P1;HPM_P2
2021/06/16 05:00:49;;;;;;;5.03;2.80;;;18.40;95.50;;;;;;5703339;23;20704;-78
2021/06/16 05:03:16;;;;;;;5.15;2.90;;;18.40;95.30;;;;;;4937857;29;20130;-79
2021/06/16 05:05:44;;;;;;;5.38;2.88;;;18.40;95.30;;;;;;4937778;29;20143;-79
2021/06/16 05:08:11;;;;;;;6.43;2.72;;;18.40;95.30;;;;;;4937252;29;20224;-79
2021/06/16 05:10:38;;;;;;;4.30;2.45;;;18.40;95.40;;;;;;4937263;29;20086;-79
2021/06/16 05:13:05;;;;;;;5.65;3.10;;;18.50;95.60;;;;;;4937437;29;20130;-78
2021/06/16 05:15:32;;;;;;;4.00;2.53;;;18.60;95.40;;;;;;4937026;29;20138;-79
2021/06/16 05:18:03;;;;;;;4.78;3.00;;;18.60;95.50;;;;;;4937700;29;20144;-78
2021/06/16 05:20:30;;;;;;;5.75;3.05;;;18.60;95.20;;;;;;4937222;29;20067;-80
2021/06/16 05:22:59;;;;;;;5.60;2.85;;;18.70;95.30;;;;;;4937339;29;20134;-81
2021/06/16 05:25:26;;;;;;;5.18;2.50;;;18.70;95.30;;;;;;4937286;29;20062;-77
2021/06/16 05:27:53;;;;;;;4.40;2.65;;;18.70;95.50;;;;;;4937229;29;20135;-80
2021/06/16 05:30:21;;;;;;;5.10;2.90;;;18.80;95.60;;;;;;4937524;29;20075;-78
2021/06/16 05:32:48;;;;;;;4.82;2.80;;;18.80;95.40;;;;;;4937097;29;20138;-80
2021/06/16 05:35:16;;;;;;;6.32;3.00;;;18.90;95.40;;;;;;4937030;29;20142;-80
2021/06/16 05:37:46;;;;;;;4.53;2.70;;;18.90;95.40;;;;;;4937103;29;20097;-80
2021/06/16 05:40:14;;;;;;;5.97;2.90;;;19.00;95.50;;;;;;4936894;29;20056;-79
2021/06/16 05:42:42;;;;;;;6.47;2.60;;;19.00;95.50;;;;;;4936474;29;20585;-80
2021/06/16 05:45:11;;;;;;;6.88;2.65;;;19.10;95.40;;;;;;4936880;29;20132;-80
2021/06/16 05:47:38;;;;;;;4.68;2.88;;;19.10;95.30;;;;;;4936841;29;20532;-80
2021/06/16 05:50:09;;;;;;;5.95;3.22;;;19.20;95.30;;;;;;4936961;29;20126;-80
2021/06/16 05:52:37;;;;;;;4.35;2.72;;;19.30;95.20;;;;;;4937425;29;20138;-75
2021/06/16 05:55:05;;;;;;;5.20;2.90;;;19.30;95.30;;;;;;4974735;23;20146;-81
2021/06/16 05:57:32;;;;;;;5.10;2.80;;;19.30;95.20;;;;;;4936344;29;20054;-82
2021/06/16 05:59:59;;;;;;;6.10;2.85;;;19.30;95.20;;;;;;4936025;29;20090;-83
2021/06/16 06:02:26;;;;;;;4.93;2.80;;;19.40;95.20;;;;;;4936153;29;20058;-83
2021/06/16 06:04:53;;;;;;;5.13;2.97;;;19.50;95.10;;;;;;4936159;29;20138;-83
2021/06/16 06:07:22;;;;;;;4.40;2.90;;;19.50;95.10;;;;;;4936482;29;20094;-83
2021/06/16 06:09:51;;;;;;;5.70;3.22;;;19.60;95.00;;;;;;4936083;29;20047;-83
2021/06/16 06:12:18;;;;;;;6.65;3.17;;;19.60;95.00;;;;;;4935585;29;20048;-83
2021/06/16 06:14:45;;;;;;;5.05;3.10;;;19.70;94.90;;;;;;4935927;29;20075;-82
2021/06/16 06:17:13;;;;;;;5.57;2.88;;;19.70;94.80;;;;;;4935976;29;20093;-82
2021/06/16 06:19:40;;;;;;;4.85;2.67;;;19.70;94.80;;;;;;4935718;29;20087;-82
2021/06/16 06:22:08;;;;;;;7.88;3.30;;;19.80;94.80;;;;;;4936035;29;20044;-82
2021/06/16 06:24:35;;;;;;;5.35;3.03;;;19.90;94.80;;;;;;4935764;29;20557;-82
2021/06/16 06:27:04;;;;;;;4.97;3.00;;;19.90;94.70;;;;;;4935776;29;20044;-82
2021/06/16 06:29:33;;;;;;;5.63;2.65;;;20.00;94.70;;;;;;4935957;29;20501;-82
2021/06/16 06:32:00;;;;;;;5.40;2.78;;;20.10;94.70;;;;;;4935737;29;20047;-82
2021/06/16 06:34:27;;;;;;;5.85;2.85;;;20.10;94.60;;;;;;4935694;29;20080;-82
2021/06/16 06:36:54;;;;;;;5.57;2.70;;;20.20;94.60;;;;;;4935896;29;20143;-82
2021/06/16 06:39:21;;;;;;;5.00;2.95;;;20.30;94.60;;;;;;4935736;29;20167;-82
2021/06/16 06:41:48;;;;;;;5.20;2.97;;;20.40;94.60;;;;;;4935626;29;20079;-82
2021/06/16 06:44:16;;;;;;;5.85;2.92;;;20.40;94.60;;;;;;4935688;29;20087;-83
2021/06/16 06:46:43;;;;;;;4.93;3.00;;;20.50;94.50;;;;;;4935534;29;20055;-82
2021/06/16 06:49:11;;;;;;;5.47;2.85;;;20.60;94.60;;;;;;4935758;29;20150;-82
2021/06/16 06:51:39;;;;;;;6.63;3.33;;;20.60;94.70;;;;;;4935643;29;20056;-82
2021/06/16 06:54:08;;;;;;;4.88;2.70;;;20.70;94.70;;;;;;4935749;29;20052;-82
2021/06/16 06:56:36;;;;;;;4.70;2.72;;;20.80;94.80;;;;;;4935393;29;20478;-82
2021/06/16 06:59:03;;;;;;;5.28;3.00;;;20.90;94.80;;;;;;4935447;29;20051;-82
2021/06/16 07:01:32;;;;;;;4.60;3.13;;;21.00;94.80;;;;;;4935458;29;20043;-82
2021/06/16 07:04:01;;;;;;;4.72;2.80;;;21.00;94.70;;;;;;4935545;29;20087;-82
2021/06/16 07:06:29;;;;;;;6.05;2.90;;;21.10;94.70;;;;;;4935363;29;20504;-82
2021/06/16 07:08:56;;;;;;;4.55;3.00;;;21.20;94.60;;;;;;4935151;29;20054;-82
2021/06/16 07:11:26;;;;;;;6.20;3.13;;;21.30;94.40;;;;;;4935382;29;20082;-82
2021/06/16 07:13:54;;;;;;;4.78;2.90;;;21.30;94.20;;;;;;4935475;29;20048;-82
2021/06/16 07:16:21;;;;;;;3.92;2.42;;;21.40;94.40;;;;;;4935734;29;20047;-82
2021/06/16 07:18:51;;;;;;;6.28;2.92;;;21.50;94.10;;;;;;4935297;29;20569;-82
2021/06/16 07:21:19;;;;;;;5.65;2.80;;;21.50;94.00;;;;;;4935466;29;20139;-82
2021/06/16 07:23:46;;;;;;;4.10;2.50;;;21.60;94.00;;;;;;4936166;29;20495;-82
2021/06/16 07:26:13;;;;;;;4.43;2.55;;;21.70;93.50;;;;;;4938833;29;20138;-82
2021/06/16 07:28:40;;;;;;;4.32;2.50;;;21.70;93.20;;;;;;4939117;29;20071;-82
2021/06/16 07:31:07;;;;;;;5.97;2.60;;;21.80;92.70;;;;;;4939027;29;20083;-82
2021/06/16 07:33:36;;;;;;;7.13;2.53;;;21.90;92.50;;;;;;4938798;29;20477;-82
2021/06/16 07:36:05;;;;;;;5.25;2.45;;;21.90;92.30;;;;;;4938808;29;20165;-83
2021/06/16 07:38:32;;;;;;;4.85;2.00;;;22.00;91.90;;;;;;4938817;29;20083;-82
2021/06/16 07:41:01;;;;;;;4.45;2.00;;;22.00;91.40;;;;;;4938568;29;20135;-82
2021/06/16 07:43:29;;;;;;;5.97;2.88;;;22.10;91.30;;;;;;4938732;29;20569;-82
2021/06/16 07:45:56;;;;;;;5.00;2.60;;;22.20;91.00;;;;;;4938808;29;20139;-83
2021/06/16 07:48:23;;;;;;;4.70;2.30;;;22.30;90.30;;;;;;4938741;29;20141;-83
2021/06/16 07:50:50;;;;;;;4.30;2.08;;;22.30;90.20;;;;;;4938611;29;20091;-82
2021/06/16 07:53:20;;;;;;;3.90;2.22;;;22.40;90.30;;;;;;4938488;29;20126;-82
2021/06/16 07:55:47;;;;;;;4.32;2.25;;;22.50;90.60;;;;;;4938230;29;20055;-83
2021/06/16 07:58:14;;;;;;;4.35;2.13;;;22.50;90.40;;;;;;4938543;29;20128;-82
2021/06/16 08:00:41;;;;;;;3.17;1.90;;;22.60;90.40;;;;;;4938398;29;20115;-82
2021/06/16 08:03:08;;;;;;;3.85;2.10;;;22.70;90.30;;;;;;4938418;29;20130;-83
2021/06/16 08:05:35;;;;;;;3.40;2.20;;;22.80;90.30;;;;;;4938337;29;20131;-83
2021/06/16 08:08:02;;;;;;;4.40;2.28;;;22.90;90.30;;;;;;4938063;29;20051;-83
2021/06/16 08:10:31;;;;;;;4.97;2.22;;;23.00;90.40;;;;;;4938391;29;20056;-83
2021/06/16 08:12:59;;;;;;;4.78;2.25;;;23.00;90.20;;;;;;4938242;29;20123;-83
2021/06/16 08:15:26;;;;;;;4.28;2.10;;;23.10;90.10;;;;;;4938185;29;20135;-82
2021/06/16 08:17:56;;;;;;;5.35;2.35;;;23.20;89.40;;;;;;4938079;29;20051;-82
2021/06/16 08:20:24;;;;;;;5.07;2.20;;;23.20;88.50;;;;;;4937904;29;20086;-82
2021/06/16 08:22:51;;;;;;;4.68;2.35;;;23.30;87.50;;;;;;4937951;29;20071;-82
2021/06/16 08:25:18;;;;;;;4.85;2.40;;;23.40;86.40;;;;;;4938086;29;20130;-82
2021/06/16 08:27:47;;;;;;;3.80;2.13;;;23.40;85.20;;;;;;4938005;29;20099;-82
2021/06/16 08:30:16;;;;;;;4.05;2.00;;;23.40;84.60;;;;;;4937834;29;20139;-82
2021/06/16 08:32:44;;;;;;;3.33;1.80;;;23.50;84.00;;;;;;4937728;29;20665;-82
2021/06/16 08:35:13;;;;;;;4.40;1.90;;;23.60;83.80;;;;;;4937066;29;20051;-82
2021/06/16 08:37:40;;;;;;;4.82;2.28;;;23.70;83.80;;;;;;4937770;29;20052;-82
2021/06/16 08:40:09;;;;;;;3.75;2.00;;;23.70;83.00;;;;;;4937382;29;20490;-82
2021/06/16 08:42:36;;;;;;;3.40;1.73;;;23.80;82.80;;;;;;4937686;29;20092;-82
2021/06/16 08:45:07;;;;;;;4.18;2.20;;;24.00;82.60;;;;;;4937493;29;20135;-83
2021/06/16 08:47:34;;;;;;;5.18;2.05;;;24.00;81.70;;;;;;4937345;29;20565;-82
2021/06/16 08:50:06;;;;;;;3.90;1.80;;;24.10;81.60;;;;;;4937591;29;20055;-82
2021/06/16 08:52:33;;;;;;;4.00;2.10;;;24.20;81.50;;;;;;4937566;29;20067;-82
2021/06/16 08:55:06;;;;;;;5.10;2.22;;;24.20;81.40;;;;;;4937185;29;20143;-82
2021/06/16 08:57:33;;;;;;;4.65;2.28;;;24.30;81.30;;;;;;4937368;29;20106;-83
2021/06/16 09:00:00;;;;;;;3.95;2.20;;;24.40;81.30;;;;;;4937074;29;20138;-82
2021/06/16 09:02:29;;;;;;;3.47;1.80;;;24.40;81.20;;;;;;4937460;29;20111;-82
2021/06/16 09:04:56;;;;;;;3.47;1.98;;;24.50;81.30;;;;;;4937121;29;20090;-83
2021/06/16 09:07:25;;;;;;;4.82;2.30;;;24.60;82.20;;;;;;4937315;29;20138;-82
2021/06/16 09:10:09;;;;;;;4.30;2.25;;;24.70;83.10;;;;;;4937238;29;20087;-82
2021/06/16 09:12:38;;;;;;;;;;;24.70;84.00;;;;;;4937443;29;20047;-82
2021/06/16 09:15:13;;;;;;;3.72;2.03;;;24.80;84.50;;;;;;4937237;29;19923;-82
2021/06/16 09:17:42;;;;;;;5.97;2.45;;;24.90;85.00;;;;;;4937063;29;20149;-82
2021/06/16 09:20:10;;;;;;;4.70;2.03;;;24.90;85.20;;;;;;4936805;29;20397;-82
2021/06/16 09:22:40;;;;;;;4.57;2.28;;;25.00;85.10;;;;;;4936879;29;20130;-82
2021/06/16 09:25:10;;;;;;;5.22;2.20;;;25.00;85.00;;;;;;4936681;29;20083;-82
2021/06/16 09:27:44;;;;;;;3.60;2.15;;;25.10;84.70;;;;;;4936691;29;20557;-82
2021/06/16 09:30:34;;;;;;;4.75;2.25;;;25.10;83.80;;;;;;4936949;29;20461;-82
2021/06/16 09:33:11;;;;;;;3.65;2.05;;;25.30;83.60;;;;;;4936743;29;20079;-82
2021/06/16 09:35:41;;;;;;;4.38;1.85;;;25.30;83.30;;;;;;4936524;29;20130;-82
2021/06/16 09:38:14;;;;;;;4.57;2.30;;;25.40;83.10;;;;;;4936600;29;20531;-82
2021/06/16 09:40:44;;;;;;;4.93;2.10;;;25.50;82.90;;;;;;4936698;29;20131;-83
2021/06/16 09:43:14;;;;;;;4.85;2.33;;;25.50;83.00;;;;;;4936902;29;20137;-82
2021/06/16 09:45:43;;;;;;;6.50;2.40;;;25.50;82.60;;;;;;4936234;29;20561;-82
2021/06/16 09:48:33;;;;;;;5.20;2.70;;;25.60;82.90;;;;;;4935981;29;20047;-83
2021/06/16 09:51:20;;;;;;;5.13;2.60;;;25.80;82.80;;;;;;4936508;29;20485;-83
2021/06/16 09:54:11;;;;;;;3.72;2.08;;;25.80;82.30;;;;;;4936342;29;20043;-83
2021/06/16 09:56:39;;;;;;;4.18;2.00;;;25.90;81.90;;;;;;4936304;29;20401;-83
2021/06/16 09:59:06;;;;;;;3.95;2.30;;;26.00;81.40;;;;;;4936317;29;20147;-83
2021/06/16 10:01:52;;;;;;;5.40;2.70;;;26.10;80.40;;;;;;4936220;29;20087;-83
2021/06/16 10:04:40;;;;;;;4.55;2.22;;;26.20;79.50;;;;;;4936246;29;20048;-84
2021/06/16 10:07:16;;;;;;;5.65;2.20;;;26.20;78.90;;;;;;4936256;29;20050;-83
2021/06/16 10:09:57;;;;;;;4.53;1.90;;;26.30;79.10;;;;;;4935944;29;20497;-83
2021/06/16 10:12:28;;;;;;;3.40;1.80;;;26.30;79.10;;;;;;4935982;29;20130;-82
2021/06/16 10:14:56;;;;;;;3.67;1.73;;;26.40;78.60;;;;;;4935907;29;20055;-83
2021/06/16 10:17:23;;;;;;;6.53;2.55;;;26.50;77.50;;;;;;4935988;29;20086;-84
2021/06/16 10:19:54;;;;;;;4.57;2.53;;;26.60;76.40;;;;;;4936025;29;20139;-84
2021/06/16 10:22:22;;;;;;;5.10;2.33;;;26.70;76.00;;;;;;4936123;29;20112;-84
2021/06/16 10:24:50;;;;;;;3.13;1.63;;;26.70;75.50;;;;;;4935956;29;20091;-84
2021/06/16 10:27:25;;;;;;;4.28;1.70;;;26.80;75.20;;;;;;4935827;29;20460;-85
2021/06/16 10:29:55;;;;;;;4.32;2.00;;;26.90;75.20;;;;;;4935822;29;20127;-84
2021/06/16 10:32:22;;;;;;;3.65;2.03;;;27.00;75.10;;;;;;4935706;29;20060;-83
2021/06/16 10:35:01;;;;;;;3.13;1.70;;;27.10;74.20;;;;;;4935768;29;20578;-82
2021/06/16 10:37:32;;;;;;;2.97;1.60;;;27.20;72.90;;;;;;4935806;29;20417;-83
2021/06/16 10:40:29;;;;;;;4.60;2.00;;;27.30;72.00;;;;;;4935589;29;20138;-83
2021/06/16 10:43:23;;;;;;;3.67;1.98;;;27.40;69.90;;;;;;4935884;29;20469;-83
2021/06/16 10:46:14;;;;;;;3.50;1.90;;;27.50;68.50;;;;;;4935658;29;20079;-83
2021/06/16 10:48:59;;;;;;;3.30;1.60;;;27.50;67.30;;;;;;4935764;29;20048;-83
2021/06/16 10:51:41;;;;;;;3.88;1.88;;;27.60;65.80;;;;;;4935627;29;20059;-83
2021/06/16 10:54:24;;;;;;;3.95;1.73;;;27.70;65.00;;;;;;4935748;29;20059;-84
2021/06/16 10:56:59;;;;;;;3.60;1.67;;;27.70;63.80;;;;;;4935475;29;20099;-84
2021/06/16 11:00:09;;;;;;;4.00;2.13;;;27.80;63.00;;;;;;4939149;29;20079;-84
2021/06/16 11:03:08;;;;;;;3.65;1.80;;;27.90;60.70;;;;;;4938934;29;20051;-84
2021/06/16 11:05:47;;;;;;;3.38;1.70;;;27.90;60.20;;;;;;4939366;29;20130;-83
2021/06/16 11:08:52;;;;;;;3.47;2.10;;;28.00;59.90;;;;;;4939534;29;20078;-84
2021/06/16 11:11:23;;;;;;;4.07;1.88;;;28.10;56.20;;;;;;4939114;29;20048;-84
2021/06/16 11:13:51;;;;;;;4.03;1.88;;;28.10;56.10;;;;;;4939228;29;20055;-84
2021/06/16 11:16:46;;;;;;;3.10;1.60;;;28.20;56.30;;;;;;4939304;29;20060;-84
2021/06/16 11:19:43;;;;;;;3.75;1.75;;;28.30;55.90;;;;;;4939238;29;20481;-84
2021/06/16 11:22:34;;;;;;;4.07;1.60;;;28.40;56.20;;;;;;4939019;29;20087;-84
2021/06/16 11:25:14;;;;;;;3.45;1.65;;;28.50;56.80;;;;;;4939026;29;20090;-84
2021/06/16 11:28:12;;;;;;;3.47;2.17;;;28.60;56.90;;;;;;4939331;29;20106;-84
2021/06/16 11:31:07;;;;;;;3.25;1.98;;;28.70;53.70;;;;;;4939004;29;20052;-84
2021/06/16 11:33:47;;;;;;;4.03;2.05;;;28.70;53.00;;;;;;4939085;29;20058;-84
2021/06/16 11:36:37;;;;;;;3.85;1.83;;;28.80;52.00;;;;;;4938813;29;20461;-84
2021/06/16 11:39:09;;;;;;;3.08;1.80;;;28.80;51.20;;;;;;4938827;29;20143;-84
2021/06/16 11:41:45;;;;;;;3.78;1.67;;;28.80;50.70;;;;;;4938638;29;20063;-84
2021/06/16 11:44:14;;;;;;;2.67;1.45;;;28.90;50.90;;;;;;4938924;29;20052;-84
2021/06/16 11:46:43;;;;;;;2.90;1.30;;;29.00;51.20;;;;;;4938722;29;20130;-84
2021/06/16 11:49:13;;;;;;;3.03;1.52;;;29.10;51.60;;;;;;4938522;29;20048;-83
2021/06/16 11:51:43;;;;;;;3.10;1.60;;;29.10;52.20;;;;;;4938480;29;20118;-85
2021/06/16 11:54:22;;;;;;;5.72;1.80;;;29.20;51.70;;;;;;4938816;29;20126;-84
2021/06/16 11:56:53;;;;;;;4.03;1.60;;;29.30;52.10;;;;;;4938405;29;20490;-85
2021/06/16 11:59:33;;;;;;;2.95;1.40;;;29.40;51.80;;;;;;4938462;29;20055;-84
2021/06/16 12:02:09;;;;;;;3.58;1.50;;;29.50;51.10;;;;;;4938391;29;20146;-85
2021/06/16 12:04:51;;;;;;;3.83;1.67;;;29.70;50.90;;;;;;4938487;29;20474;-84
2021/06/16 12:07:24;;;;;;;3.20;1.60;;;;;;;;;;4938460;29;20054;-85
2021/06/16 12:09:53;;;;;;;2.75;1.45;;;29.90;49.90;;;;;;4937252;29;20130;-84
2021/06/16 12:12:22;;;;;;;3.15;1.50;;;30.00;50.10;;;;;;4938219;29;20138;-85
2021/06/16 12:14:50;;;;;;;3.58;1.58;;;30.10;50.20;;;;;;4938275;29;20474;-84
2021/06/16 12:17:17;;;;;;;3.38;1.67;;;30.20;49.30;;;;;;4938130;29;20485;-85
2021/06/16 12:19:44;;;;;;;2.83;1.40;;;30.30;49.40;;;;;;4937977;29;20561;-85
2021/06/16 12:22:12;;;;;;;3.08;1.77;;;30.30;49.60;;;;;;4937875;29;20055;-85
2021/06/16 12:24:44;;;;;;;3.15;1.58;;;30.40;48.20;;;;;;4938039;29;20135;-84
2021/06/16 12:27:14;;;;;;;3.38;1.63;;;30.40;47.90;;;;;;4938012;29;20055;-85
2021/06/16 12:29:48;;;;;;;3.97;1.73;;;30.50;47.40;;;;;;4938187;29;20082;-85
2021/06/16 12:32:28;;;;;;;3.05;1.48;;;30.60;46.30;;;;;;4937929;29;20130;-85
2021/06/16 12:35:17;;;;;;;2.78;1.55;;;30.60;47.00;;;;;;4937991;29;20051;-85
2021/06/16 12:37:49;;;;;;;2.95;1.48;;;30.60;46.90;;;;;;4937861;29;20056;-85
2021/06/16 12:40:19;;;;;;;2.85;1.50;;;30.80;47.10;;;;;;4937591;29;20048;-84
2021/06/16 12:42:49;;;;;;;3.53;1.70;;;30.80;47.40;;;;;;4937496;29;20482;-84
2021/06/16 12:45:30;;;;;;;4.47;1.50;;;30.90;46.70;;;;;;4937484;29;20122;-84
2021/06/16 12:47:59;;;;;;;3.78;1.80;;;31.00;46.90;;;;;;4937548;29;20147;-84
2021/06/16 12:50:29;;;;;;;3.30;1.80;;;31.20;47.30;;;;;;4937583;29;20079;-84
2021/06/16 12:52:56;;;;;;;4.00;1.85;;;31.30;47.40;;;;;;4937462;29;20564;-85
2021/06/16 12:55:25;;;;;;;2.92;1.50;;;31.50;47.00;;;;;;4937030;29;20564;-85
2021/06/16 12:57:55;;;;;;;3.38;1.60;;;;;;;;;;4937375;29;20086;-84
2021/06/16 13:00:28;;;;;;;2.50;1.25;;;31.80;76.10;;;;;;4937638;29;20087;-84
2021/06/16 13:02:56;;;;;;;5.75;1.90;;;31.90;47.80;;;;;;4937178;29;20059;-84
2021/06/16 13:05:27;;;;;;;4.45;2.00;;;32.10;47.40;;;;;;4937179;29;20087;-84
2021/06/16 13:07:56;;;;;;;3.65;1.80;;;32.20;45.60;;;;;;4937103;29;20486;-84
2021/06/16 13:10:37;;;;;;;3.55;2.10;;;32.30;45.30;;;;;;4936962;29;20083;-84
2021/06/16 13:13:08;;;;;;;3.53;1.77;;;32.40;44.10;;;;;;4936737;29;20060;-84
2021/06/16 13:16:00;;;;;;;3.97;1.95;;;32.40;46.60;;;;;;4937038;29;20052;-85
2021/06/16 13:18:31;;;;;;;5.03;2.03;;;32.60;44.20;;;;;;4918212;29;20135;-84
2021/06/16 13:21:11;;;;;;;2.92;1.60;;;32.60;43.20;;;;;;4936568;29;20501;-84
2021/06/16 13:23:38;;;;;;;3.38;1.60;;;32.70;43.70;;;;;;4936886;29;20142;-85
2021/06/16 13:26:11;;;;;;;3.25;1.80;;;32.80;43.50;;;;;;4937060;29;20090;-85
2021/06/16 13:28:41;;;;;;;3.47;1.80;;;32.90;44.00;;;;;;4936953;29;20138;-85
2021/06/16 13:31:20;;;;;;;3.05;1.70;;;33.10;43.90;;;;;;4937401;29;20134;-85
2021/06/16 13:33:49;;;;;;;3.63;1.77;;;33.20;43.30;;;;;;4937267;29;20090;-84
2021/06/16 13:36:21;;;;;;;3.25;1.50;;;33.40;43.30;;;;;;4936667;29;20489;-84
2021/06/16 13:38:54;;;;;;;3.00;1.45;;;33.50;43.50;;;;;;4936904;29;20075;-85
2021/06/16 13:41:25;;;;;;;4.03;1.80;;;33.60;43.60;;;;;;4937252;29;20090;-85
2021/06/16 13:43:52;;;;;;;3.50;1.67;;;33.60;43.40;;;;;;4936745;29;20086;-84
2021/06/16 13:46:21;;;;;;;3.17;1.60;;;33.60;43.00;;;;;;4936321;29;20083;-84
2021/06/16 13:48:48;;;;;;;3.00;1.58;;;33.50;43.20;;;;;;4936390;29;20127;-84
2021/06/16 13:51:15;;;;;;;3.60;1.70;;;33.40;43.60;;;;;;4936427;29;20051;-84
2021/06/16 13:53:43;;;;;;;3.47;1.60;;;33.40;43.90;;;;;;4936382;29;20438;-84
2021/06/16 13:56:11;;;;;;;3.30;1.77;;;33.20;44.40;;;;;;4936341;29;20060;-84
2021/06/16 13:58:38;;;;;;;3.45;1.50;;;33.10;45.10;;;;;;4936528;29;20048;-84
2021/06/16 14:01:06;;;;;;;3.95;1.70;;;33.10;45.40;;;;;;4936166;29;20139;-84
2021/06/16 14:03:34;;;;;;;3.35;1.50;;;33.00;44.60;;;;;;4936216;29;20079;-84
2021/06/16 14:06:01;;;;;;;3.53;1.65;;;33.00;45.00;;;;;;4935986;29;20138;-84
2021/06/16 14:08:28;;;;;;;3.40;2.10;;;32.90;44.90;;;;;;4936050;29;20075;-84
2021/06/16 14:10:59;;;;;;;3.60;1.92;;;32.90;44.90;;;;;;4936165;29;20138;-84
2021/06/16 14:13:27;;;;;;;4.30;2.05;;;32.90;45.70;;;;;;4936214;29;20118;-84
2021/06/16 14:15:54;;;;;;;3.55;1.75;;;32.80;46.10;;;;;;4936026;29;20054;-84
2021/06/16 14:18:21;;;;;;;3.30;1.85;;;32.80;46.60;;;;;;4935893;29;20101;-84
2021/06/16 14:20:50;;;;;;;3.80;2.05;;;32.70;46.50;;;;;;4935912;29;20131;-84
2021/06/16 14:23:17;;;;;;;3.35;1.63;;;32.70;46.80;;;;;;4935978;29;20158;-85
2021/06/16 14:25:44;;;;;;;3.10;1.70;;;32.70;47.30;;;;;;4935808;29;20079;-85
2021/06/16 14:28:13;;;;;;;3.50;1.60;;;32.80;47.70;;;;;;4935646;29;20052;-84
2021/06/16 14:30:41;;;;;;;3.70;1.80;;;32.90;47.90;;;;;;4935906;29;20067;-84
2021/06/16 14:33:08;;;;;;;3.50;1.90;;;33.00;47.70;;;;;;4935371;29;20102;-84
2021/06/16 14:35:36;;;;;;;4.65;2.28;;;33.10;47.80;;;;;;4935663;29;20135;-84
2021/06/16 14:38:04;;;;;;;4.07;1.70;;;33.20;47.10;;;;;;4935897;29;20071;-84
2021/06/16 14:40:32;;;;;;;3.55;1.70;;;33.20;46.80;;;;;;4935741;29;20079;-84
2021/06/16 14:42:59;;;;;;;3.97;1.70;;;33.20;46.60;;;;;;4935725;29;20138;-85
2021/06/16 14:45:26;;;;;;;3.03;1.80;;;33.30;46.20;;;;;;4935639;29;20054;-84
2021/06/16 14:47:53;;;;;;;4.15;1.90;;;33.40;45.40;;;;;;4935518;29;20048;-84
2021/06/16 14:50:21;;;;;;;3.30;1.50;;;33.50;45.50;;;;;;4935537;29;20139;-84
2021/06/16 14:52:48;;;;;;;4.32;1.60;;;33.60;45.10;;;;;;4922669;29;20087;-80
2021/06/16 14:55:17;;;;;;;4.18;1.70;;;33.70;44.90;;;;;;4924848;29;20069;-81
2021/06/16 14:57:45;;;;;;;3.30;1.70;;;33.90;44.90;;;;;;4926358;29;20123;-93
2021/06/16 15:00:14;;;;;;;2.90;1.50;;;34.00;45.20;;;;;;4932992;29;20107;-94
2021/06/16 15:02:41;;;;;;;2.95;1.40;;;33.90;44.60;;;;;;4925470;29;20485;-92
2021/06/16 15:05:09;;;;;;;2.60;1.30;;;33.90;44.10;;;;;;4927522;29;20090;-92
2021/06/16 15:07:39;;;;;;;2.75;1.20;;;33.90;43.80;;;;;;4928013;29;20131;-92
2021/06/16 15:10:08;;;;;;;2.45;1.23;;;34.00;43.90;;;;;;4928526;29;20044;-93
2021/06/16 15:12:36;;;;;;;2.88;1.40;;;33.90;43.90;;;;;;4930427;29;20127;-92
2021/06/16 15:15:05;;;;;;;2.55;1.35;;;33.90;43.90;;;;;;4929850;29;20581;-93
2021/06/16 15:17:33;;;;;;;3.08;1.45;;;34.00;43.70;;;;;;4922548;29;20063;-93
2021/06/16 15:20:00;;;;;;;2.85;1.52;;;34.00;42.90;;;;;;4915110;29;20127;-93
2021/06/16 15:22:27;;;;;;;2.60;1.35;;;34.00;42.90;;;;;;4919096;29;20163;-92
2021/06/16 15:24:55;;;;;;;4.07;1.67;;;34.00;43.10;;;;;;4925537;29;20079;-92
2021/06/16 15:27:24;;;;;;;2.42;1.20;;;34.10;42.80;;;;;;4927255;29;20056;-93
2021/06/16 15:29:54;;;;;;;3.08;1.25;;;34.20;42.20;;;;;;4928911;29;20098;-93
2021/06/16 15:32:21;;;;;;;3.13;1.30;;;34.30;41.90;;;;;;4923913;29;20103;-94
2021/06/16 15:34:49;;;;;;;3.38;1.30;;;34.30;41.60;;;;;;4948399;29;20431;-92
2021/06/16 15:37:16;;;;;;;3.40;1.50;;;34.20;48.10;;;;;;4950893;29;20055;-94
2021/06/16 15:39:44;;;;;;;3.05;1.40;;;34.50;58.10;;;;;;4936293;29;20135;-94
2021/06/16 15:42:14;;;;;;;3.17;1.30;;;34.60;59.10;;;;;;4936245;29;20477;-93
2021/06/16 15:44:42;;;;;;;2.90;1.20;;;34.60;41.30;;;;;;4937223;29;20087;-94
2021/06/16 15:47:10;;;;;;;2.70;1.15;;;34.60;41.00;;;;;;4930318;29;20055;-95
2021/06/16 15:49:38;;;;;;;2.88;1.30;;;34.70;41.10;;;;;;4928682;29;20109;-93
2021/06/16 15:52:06;;;;;;;3.00;1.38;;;34.70;40.60;;;;;;4928492;29;20095;-93
2021/06/16 15:54:33;;;;;;;4.45;1.40;;;34.80;40.30;;;;;;4926911;29;20590;-94
2021/06/16 15:57:00;;;;;;;4.05;1.67;;;34.80;41.20;;;;;;4928237;29;20090;-93
2021/06/16 15:59:27;;;;;;;3.35;1.50;;;34.80;40.50;;;;;;4928051;29;20044;-93
2021/06/16 16:01:54;;;;;;;2.85;1.40;;;34.70;40.40;;;;;;4920950;29;20082;-94
2021/06/16 16:04:23;;;;;;;3.70;1.80;;;34.70;40.70;;;;;;4923011;29;20144;-94
2021/06/16 16:06:50;;;;;;;2.47;1.40;;;34.80;40.10;;;;;;4921820;29;20143;-94
2021/06/16 16:09:17;;;;;;;2.25;1.17;;;34.80;40.20;;;;;;4930069;29;20127;-95
2021/06/16 16:11:44;;;;;;;3.40;1.73;;;34.80;39.60;;;;;;4928455;29;20102;-93
2021/06/16 16:14:11;;;;;;;3.15;1.23;;;34.80;40.00;;;;;;4935896;29;20052;-93
2021/06/16 16:16:38;;;;;;;3.10;1.35;;;34.80;40.30;;;;;;4927660;29;20052;-94
2021/06/16 16:19:05;;;;;;;4.95;1.75;;;34.80;40.30;;;;;;4927270;29;20589;-93
2021/06/16 16:21:34;;;;;;;3.55;1.40;;;34.90;40.20;;;;;;4926590;29;20135;-95
2021/06/16 16:24:01;;;;;;;2.30;1.20;;;34.90;40.50;;;;;;4920901;29;20143;-93
2021/06/16 16:26:28;;;;;;;3.47;1.30;;;34.90;40.30;;;;;;4930332;29;20142;-94
2021/06/16 16:28:55;;;;;;;3.10;1.20;;;35.00;40.50;;;;;;4928061;29;20075;-93
2021/06/16 16:31:22;;;;;;;2.60;1.40;;;35.10;49.20;;;;;;4933873;29;20086;-93
2021/06/16 16:33:49;;;;;;;3.10;1.30;;;35.20;57.90;;;;;;4929628;29;20131;-92
2021/06/16 16:36:18;;;;;;;3.47;1.40;;;35.10;55.70;;;;;;4936593;29;20075;-91
2021/06/16 16:38:46;;;;;;;3.00;1.50;;;35.20;54.10;;;;;;4937949;29;20155;-93
2021/06/16 16:41:14;;;;;;;2.60;1.30;;;35.20;53.00;;;;;;4921209;29;20182;-93
2021/06/16 16:43:42;;;;;;;2.55;1.20;;;35.20;53.50;;;;;;4936971;29;20493;-93
2021/06/16 16:46:10;;;;;;;2.75;1.10;;;35.20;59.00;;;;;;4936298;29;20114;-93
2021/06/16 16:48:37;;;;;;;2.28;1.20;;;35.20;61.70;;;;;;4937918;29;20052;-93
2021/06/16 16:51:04;;;;;;;3.17;1.40;;;35.20;62.40;;;;;;4937137;29;20056;-93
2021/06/16 16:53:31;;;;;;;3.35;1.45;;;35.20;69.00;;;;;;4935749;29;20126;-92
2021/06/16 16:56:00;;;;;;;2.80;1.30;;;35.20;68.90;;;;;;4933866;29;20115;-93
2021/06/16 16:58:27;;;;;;;2.70;1.40;;;35.20;71.10;;;;;;4937011;29;20086;-92
2021/06/16 17:00:54;;;;;;;3.30;1.58;;;35.20;72.00;;;;;;4930390;29;20201;-92
2021/06/16 17:03:21;;;;;;;3.50;1.63;;;35.30;72.00;;;;;;4935853;29;20055;-93
2021/06/16 17:05:48;;;;;;;2.47;1.30;;;35.20;65.50;;;;;;4928488;29;20086;-91
2021/06/16 17:08:15;;;;;;;3.15;1.33;;;35.30;54.40;;;;;;4934720;29;20568;-91
2021/06/16 17:10:43;;;;;;;4.15;1.48;;;35.30;51.60;;;;;;4930758;29;20135;-91
2021/06/16 17:13:15;;;;;;;2.40;1.40;;;35.20;47.90;;;;;;4935922;29;20083;-92
2021/06/16 17:15:42;;;;;;;2.83;1.50;;;35.10;46.60;;;;;;4937056;29;20052;-92
2021/06/16 17:18:09;;;;;;;3.55;1.58;;;35.20;46.20;;;;;;4932160;29;20147;-93
2021/06/16 17:20:36;;;;;;;3.45;1.50;;;35.20;45.80;;;;;;4937748;29;20135;-93
2021/06/16 17:23:05;;;;;;;3.38;1.40;;;35.10;45.60;;;;;;4937522;29;20110;-92
2021/06/16 17:25:33;;;;;;;2.67;1.30;;;35.10;45.20;;;;;;4939379;29;20052;-93
2021/06/16 17:28:00;;;;;;;4.13;1.58;;;35.00;45.10;;;;;;4931988;29;20063;-93
2021/06/16 17:30:28;;;;;;;2.92;1.40;;;35.00;45.70;;;;;;4931638;29;20055;-93
2021/06/16 17:32:56;;;;;;;3.15;1.70;;;34.90;46.70;;;;;;4931427;29;20131;-90
2021/06/16 17:35:24;;;;;;;4.38;1.70;;;34.80;47.10;;;;;;4936758;29;20106;-92
2021/06/16 17:37:51;;;;;;;3.25;1.42;;;34.60;46.70;;;;;;4936592;29;20134;-93
2021/06/16 17:40:24;;;;;;;3.75;1.42;;;34.50;46.20;;;;;;4932448;29;20075;-91
2021/06/16 17:42:51;;;;;;;2.85;1.50;;;34.30;45.70;;;;;;4936965;29;20401;-91
2021/06/16 17:45:21;;;;;;;3.05;1.40;;;34.10;45.80;;;;;;4937577;29;20566;-91
2021/06/16 17:47:50;;;;;;;2.83;1.60;;;34.00;46.00;;;;;;4937096;29;20453;-93
2021/06/16 17:50:19;;;;;;;2.72;1.58;;;33.80;46.20;;;;;;4935439;29;20142;-92
2021/06/16 17:52:47;;;;;;;3.10;1.65;;;33.70;46.50;;;;;;4936729;29;20107;-91
2021/06/16 17:55:16;;;;;;;4.53;1.70;;;33.60;46.90;;;;;;4935422;29;20059;-90
2021/06/16 17:57:43;;;;;;;3.75;1.70;;;33.50;47.60;;;;;;4930974;29;20052;-93
2021/06/16 18:00:13;;;;;;;3.70;1.70;;;33.40;48.20;;;;;;4933072;29;20517;-91
2021/06/16 18:02:42;;;;;;;2.75;1.60;;;33.40;48.80;;;;;;4936432;29;20058;-93
2021/06/16 18:05:12;;;;;;;2.85;1.70;;;33.30;53.00;;;;;;4936399;29;20131;-92